sensor_id;sensor_type;location;lat;lon;timestamp;P1;durP1;ratioP1;P2;durP2;ratioP2
13485;SDS011;6815;59.336;17.998;2023-10-19T00:00:18;2.83;;;1.20;;
13485;SDS011;6815;59.336;17.998;2023-10-19T00:02:48;3.93;;;1.50;;
13485;SDS011;6815;59.336;17.998;2023-10-19T00:05:17;1.67;;;1.40;;
13485;SDS011;6815;59.336;17.998;2023-10-19T00:07:43;4.00;;;1.50;;
13485;SDS011;6815;59.336;17.998;2023-10-19T00:10:09;2.67;;;1.50;;
13485;SDS011;6815;59.336;17.998;2023-10-19T00:12:35;1.47;;;1.37;;
13485;SDS011;6815;59.336;17.998;2023-10-19T00:15:01;2.43;;;1.37;;
13485;SDS011;6815;59.336;17.998;2023-10-19T00:17:29;3.03;;;1.23;;
13485;SDS011;6815;59.336;17.998;2023-10-19T00:19:57;1.60;;;1.17;;
13485;SDS011;6815;59.336;17.998;2023-10-19T00:22:24;2.13;;;1.20;;
13485;SDS011;6815;59.336;17.998;2023-10-19T00:24:50;2.23;;;1.30;;
13485;SDS011;6815;59.336;17.998;2023-10-19T00:27:15;1.47;;;0.97;;
13485;SDS011;6815;59.336;17.998;2023-10-19T00:29:42;1.87;;;1.33;;
13485;SDS011;6815;59.336;17.998;2023-10-19T00:32:14;1.40;;;1.10;;
13485;SDS011;6815;59.336;17.998;2023-10-19T00:34:40;1.70;;;0.90;;
13485;SDS011;6815;59.336;17.998;2023-10-19T00:37:07;1.47;;;0.90;;
13485;SDS011;6815;59.336;17.998;2023-10-19T00:39:34;2.53;;;1.10;;
13485;SDS011;6815;59.336;17.998;2023-10-19T00:42:09;1.47;;;1.20;;
13485;SDS011;6815;59.336;17.998;2023-10-19T00:44:34;1.63;;;1.07;;
13485;SDS011;6815;59.336;17.998;2023-10-19T00:47:07;2.33;;;1.27;;
13485;SDS011;6815;59.336;17.998;2023-10-19T00:49:39;2.20;;;1.13;;
13485;SDS011;6815;59.336;17.998;2023-10-19T00:52:05;1.50;;;1.10;;
13485;SDS011;6815;59.336;17.998;2023-10-19T00:54:44;1.20;;;1.10;;
13485;SDS011;6815;59.336;17.998;2023-10-19T00:57:13;1.40;;;1.17;;
13485;SDS011;6815;59.336;17.998;2023-10-19T00:59:44;1.53;;;1.13;;
13485;SDS011;6815;59.336;17.998;2023-10-19T01:02:15;2.00;;;1.53;;
13485;SDS011;6815;59.336;17.998;2023-10-19T01:05:01;1.87;;;1.00;;
13485;SDS011;6815;59.336;17.998;2023-10-19T01:07:31;1.63;;;1.10;;
13485;SDS011;6815;59.336;17.998;2023-10-19T01:10:02;1.10;;;0.90;;
13485;SDS011;6815;59.336;17.998;2023-10-19T01:12:37;1.40;;;1.10;;
13485;SDS011;6815;59.336;17.998;2023-10-19T01:15:03;2.07;;;1.10;;
13485;SDS011;6815;59.336;17.998;2023-10-19T01:17:32;4.07;;;1.20;;
13485;SDS011;6815;59.336;17.998;2023-10-19T01:19:59;3.40;;;1.23;;
13485;SDS011;6815;59.336;17.998;2023-10-19T01:22:26;1.87;;;1.20;;
13485;SDS011;6815;59.336;17.998;2023-10-19T01:24:52;2.67;;;1.20;;
13485;SDS011;6815;59.336;17.998;2023-10-19T01:27:18;2.33;;;1.20;;
13485;SDS011;6815;59.336;17.998;2023-10-19T01:29:45;1.10;;;0.93;;
13485;SDS011;6815;59.336;17.998;2023-10-19T01:32:10;3.10;;;1.10;;
13485;SDS011;6815;59.336;17.998;2023-10-19T01:34:37;1.70;;;1.20;;
13485;SDS011;6815;59.336;17.998;2023-10-19T01:37:02;2.63;;;1.10;;
13485;SDS011;6815;59.336;17.998;2023-10-19T01:39:32;2.83;;;1.63;;
13485;SDS011;6815;59.336;17.998;2023-10-19T01:42:04;2.67;;;1.00;;
13485;SDS011;6815;59.336;17.998;2023-10-19T01:44:30;1.87;;;1.23;;
13485;SDS011;6815;59.336;17.998;2023-10-19T01:47:01;2.37;;;1.17;;
13485;SDS011;6815;59.336;17.998;2023-10-19T01:49:26;2.13;;;1.10;;
13485;SDS011;6815;59.336;17.998;2023-10-19T01:51:53;1.77;;;1.10;;
13485;SDS011;6815;59.336;17.998;2023-10-19T01:54:19;2.50;;;0.97;;
13485;SDS011;6815;59.336;17.998;2023-10-19T01:56:53;2.47;;;1.03;;
13485;SDS011;6815;59.336;17.998;2023-10-19T01:59:24;3.20;;;1.03;;
13485;SDS011;6815;59.336;17.998;2023-10-19T02:01:56;1.73;;;1.10;;
13485;SDS011;6815;59.336;17.998;2023-10-19T02:04:23;2.10;;;1.07;;
13485;SDS011;6815;59.336;17.998;2023-10-19T02:06:50;1.83;;;1.20;;
13485;SDS011;6815;59.336;17.998;2023-10-19T02:09:19;1.30;;;0.80;;
13485;SDS011;6815;59.336;17.998;2023-10-19T02:11:45;1.00;;;0.90;;
13485;SDS011;6815;59.336;17.998;2023-10-19T02:14:12;1.10;;;1.00;;
13485;SDS011;6815;59.336;17.998;2023-10-19T02:16:39;2.90;;;1.10;;
13485;SDS011;6815;59.336;17.998;2023-10-19T02:19:06;1.97;;;1.20;;
13485;SDS011;6815;59.336;17.998;2023-10-19T02:21:31;1.47;;;0.93;;
13485;SDS011;6815;59.336;17.998;2023-10-19T02:24:04;2.00;;;0.90;;
13485;SDS011;6815;59.336;17.998;2023-10-19T02:26:32;1.80;;;1.20;;
13485;SDS011;6815;59.336;17.998;2023-10-19T02:28:58;1.57;;;1.00;;
13485;SDS011;6815;59.336;17.998;2023-10-19T02:31:24;3.70;;;1.20;;
13485;SDS011;6815;59.336;17.998;2023-10-19T02:33:51;2.10;;;0.93;;
13485;SDS011;6815;59.336;17.998;2023-10-19T02:36:27;1.17;;;0.80;;
13485;SDS011;6815;59.336;17.998;2023-10-19T02:38:57;3.30;;;1.10;;
13485;SDS011;6815;59.336;17.998;2023-10-19T02:41:28;1.17;;;0.90;;
13485;SDS011;6815;59.336;17.998;2023-10-19T02:43:54;0.87;;;0.87;;
13485;SDS011;6815;59.336;17.998;2023-10-19T02:46:31;1.80;;;0.90;;
13485;SDS011;6815;59.336;17.998;2023-10-19T02:49:00;1.37;;;0.90;;
13485;SDS011;6815;59.336;17.998;2023-10-19T02:51:30;1.77;;;1.20;;
13485;SDS011;6815;59.336;17.998;2023-10-19T02:53:56;1.60;;;0.80;;
13485;SDS011;6815;59.336;17.998;2023-10-19T02:56:24;1.70;;;0.90;;
13485;SDS011;6815;59.336;17.998;2023-10-19T02:58:50;1.07;;;0.60;;
13485;SDS011;6815;59.336;17.998;2023-10-19T03:01:19;2.13;;;0.80;;
13485;SDS011;6815;59.336;17.998;2023-10-19T03:03:50;1.80;;;0.87;;
13485;SDS011;6815;59.336;17.998;2023-10-19T03:06:20;1.90;;;0.73;;
13485;SDS011;6815;59.336;17.998;2023-10-19T03:08:47;1.87;;;0.77;;
13485;SDS011;6815;59.336;17.998;2023-10-19T03:11:17;3.37;;;0.90;;
13485;SDS011;6815;59.336;17.998;2023-10-19T03:13:42;1.20;;;1.00;;
13485;SDS011;6815;59.336;17.998;2023-10-19T03:16:08;2.20;;;1.50;;
13485;SDS011;6815;59.336;17.998;2023-10-19T03:18:34;0.87;;;0.80;;
13485;SDS011;6815;59.336;17.998;2023-10-19T03:21:03;2.90;;;1.10;;
13485;SDS011;6815;59.336;17.998;2023-10-19T03:23:28;1.37;;;0.97;;
13485;SDS011;6815;59.336;17.998;2023-10-19T03:25:56;1.07;;;0.90;;
13485;SDS011;6815;59.336;17.998;2023-10-19T03:28:40;2.30;;;1.00;;
13485;SDS011;6815;59.336;17.998;2023-10-19T03:31:06;1.30;;;0.90;;
13485;SDS011;6815;59.336;17.998;2023-10-19T03:33:32;1.20;;;0.80;;
13485;SDS011;6815;59.336;17.998;2023-10-19T03:36:01;1.10;;;0.90;;
13485;SDS011;6815;59.336;17.998;2023-10-19T03:38:29;0.93;;;0.70;;
13485;SDS011;6815;59.336;17.998;2023-10-19T03:40:59;2.40;;;0.80;;
13485;SDS011;6815;59.336;17.998;2023-10-19T03:43:31;1.90;;;0.90;;
13485;SDS011;6815;59.336;17.998;2023-10-19T03:45:57;0.80;;;0.80;;
13485;SDS011;6815;59.336;17.998;2023-10-19T03:48:24;0.70;;;0.70;;
13485;SDS011;6815;59.336;17.998;2023-10-19T03:50:52;1.97;;;0.80;;
13485;SDS011;6815;59.336;17.998;2023-10-19T03:53:20;1.23;;;0.90;;
13485;SDS011;6815;59.336;17.998;2023-10-19T03:55:46;1.60;;;0.70;;
13485;SDS011;6815;59.336;17.998;2023-10-19T03:58:12;1.40;;;0.90;;
13485;SDS011;6815;59.336;17.998;2023-10-19T04:00:38;2.87;;;1.10;;
13485;SDS011;6815;59.336;17.998;2023-10-19T04:03:03;1.83;;;0.97;;
13485;SDS011;6815;59.336;17.998;2023-10-19T04:05:29;1.20;;;0.90;;
13485;SDS011;6815;59.336;17.998;2023-10-19T04:07:56;1.30;;;0.90;;
13485;SDS011;6815;59.336;17.998;2023-10-19T04:10:25;3.67;;;1.00;;
13485;SDS011;6815;59.336;17.998;2023-10-19T04:13:00;1.60;;;1.10;;
13485;SDS011;6815;59.336;17.998;2023-10-19T04:15:26;1.73;;;1.20;;
13485;SDS011;6815;59.336;17.998;2023-10-19T04:17:52;2.60;;;1.03;;
13485;SDS011;6815;59.336;17.998;2023-10-19T04:20:23;1.60;;;1.10;;
13485;SDS011;6815;59.336;17.998;2023-10-19T04:23:00;2.97;;;1.13;;
13485;SDS011;6815;59.336;17.998;2023-10-19T04:25:35;1.57;;;1.10;;
13485;SDS011;6815;59.336;17.998;2023-10-19T04:28:00;1.70;;;0.97;;
13485;SDS011;6815;59.336;17.998;2023-10-19T04:30:26;2.90;;;1.30;;
13485;SDS011;6815;59.336;17.998;2023-10-19T04:32:52;1.87;;;1.20;;
13485;SDS011;6815;59.336;17.998;2023-10-19T04:35:18;1.70;;;1.10;;
13485;SDS011;6815;59.336;17.998;2023-10-19T04:37:50;2.80;;;1.20;;
13485;SDS011;6815;59.336;17.998;2023-10-19T04:40:17;1.37;;;0.90;;
13485;SDS011;6815;59.336;17.998;2023-10-19T04:42:49;1.37;;;0.93;;
13485;SDS011;6815;59.336;17.998;2023-10-19T04:45:16;1.10;;;0.90;;
13485;SDS011;6815;59.336;17.998;2023-10-19T04:47:41;1.33;;;1.03;;
13485;SDS011;6815;59.336;17.998;2023-10-19T04:50:08;2.23;;;1.17;;
13485;SDS011;6815;59.336;17.998;2023-10-19T04:52:38;1.83;;;1.00;;
13485;SDS011;6815;59.336;17.998;2023-10-19T04:55:04;2.50;;;1.20;;
13485;SDS011;6815;59.336;17.998;2023-10-19T04:57:30;1.60;;;0.97;;
13485;SDS011;6815;59.336;17.998;2023-10-19T04:59:56;1.53;;;1.40;;
13485;SDS011;6815;59.336;17.998;2023-10-19T05:02:22;1.87;;;1.33;;
13485;SDS011;6815;59.336;17.998;2023-10-19T05:04:48;2.33;;;1.20;;
13485;SDS011;6815;59.336;17.998;2023-10-19T05:07:14;2.00;;;1.10;;
13485;SDS011;6815;59.336;17.998;2023-10-19T05:09:42;2.27;;;1.07;;
13485;SDS011;6815;59.336;17.998;2023-10-19T05:12:08;3.07;;;1.30;;
13485;SDS011;6815;59.336;17.998;2023-10-19T05:14:38;3.50;;;1.07;;
13485;SDS011;6815;59.336;17.998;2023-10-19T05:17:07;2.40;;;1.13;;
13485;SDS011;6815;59.336;17.998;2023-10-19T05:19:37;1.60;;;1.17;;
13485;SDS011;6815;59.336;17.998;2023-10-19T05:22:05;3.00;;;1.00;;
13485;SDS011;6815;59.336;17.998;2023-10-19T05:24:32;2.03;;;1.10;;
13485;SDS011;6815;59.336;17.998;2023-10-19T05:26:58;2.83;;;1.13;;
13485;SDS011;6815;59.336;17.998;2023-10-19T05:29:23;1.27;;;1.00;;
13485;SDS011;6815;59.336;17.998;2023-10-19T05:31:50;2.77;;;1.10;;
13485;SDS011;6815;59.336;17.998;2023-10-19T05:34:20;3.80;;;1.27;;
13485;SDS011;6815;59.336;17.998;2023-10-19T05:36:45;1.80;;;1.37;;
13485;SDS011;6815;59.336;17.998;2023-10-19T05:39:14;1.43;;;1.03;;
13485;SDS011;6815;59.336;17.998;2023-10-19T05:41:40;2.53;;;1.40;;
13485;SDS011;6815;59.336;17.998;2023-10-19T05:44:05;4.20;;;1.50;;
13485;SDS011;6815;59.336;17.998;2023-10-19T05:46:31;4.07;;;1.63;;
13485;SDS011;6815;59.336;17.998;2023-10-19T05:48:56;3.30;;;1.90;;
13485;SDS011;6815;59.336;17.998;2023-10-19T05:51:23;4.70;;;1.77;;
13485;SDS011;6815;59.336;17.998;2023-10-19T05:53:48;3.00;;;1.77;;
13485;SDS011;6815;59.336;17.998;2023-10-19T05:56:15;3.40;;;1.90;;
13485;SDS011;6815;59.336;17.998;2023-10-19T05:58:42;3.00;;;2.20;;
13485;SDS011;6815;59.336;17.998;2023-10-19T06:01:09;4.57;;;1.67;;
13485;SDS011;6815;59.336;17.998;2023-10-19T06:03:34;2.30;;;1.80;;
13485;SDS011;6815;59.336;17.998;2023-10-19T06:06:00;3.03;;;1.70;;
13485;SDS011;6815;59.336;17.998;2023-10-19T06:08:26;3.03;;;1.97;;
13485;SDS011;6815;59.336;17.998;2023-10-19T06:10:52;4.43;;;1.70;;
13485;SDS011;6815;59.336;17.998;2023-10-19T06:13:18;4.40;;;1.90;;
13485;SDS011;6815;59.336;17.998;2023-10-19T06:15:45;2.70;;;2.00;;
13485;SDS011;6815;59.336;17.998;2023-10-19T06:18:11;2.57;;;1.60;;
13485;SDS011;6815;59.336;17.998;2023-10-19T06:20:42;3.13;;;2.00;;
13485;SDS011;6815;59.336;17.998;2023-10-19T06:23:11;1.73;;;1.53;;
13485;SDS011;6815;59.336;17.998;2023-10-19T06:25:37;3.63;;;1.80;;
13485;SDS011;6815;59.336;17.998;2023-10-19T06:28:04;2.83;;;2.00;;
13485;SDS011;6815;59.336;17.998;2023-10-19T06:30:30;2.83;;;2.10;;
13485;SDS011;6815;59.336;17.998;2023-10-19T06:32:56;3.73;;;2.00;;
13485;SDS011;6815;59.336;17.998;2023-10-19T06:35:27;2.43;;;2.00;;
13485;SDS011;6815;59.336;17.998;2023-10-19T06:37:57;2.90;;;1.80;;
13485;SDS011;6815;59.336;17.998;2023-10-19T06:40:24;2.70;;;1.70;;
13485;SDS011;6815;59.336;17.998;2023-10-19T06:42:50;3.90;;;2.07;;
13485;SDS011;6815;59.336;17.998;2023-10-19T06:45:17;3.47;;;2.27;;
13485;SDS011;6815;59.336;17.998;2023-10-19T06:47:46;2.40;;;1.90;;
13485;SDS011;6815;59.336;17.998;2023-10-19T06:50:13;3.33;;;1.93;;
13485;SDS011;6815;59.336;17.998;2023-10-19T06:52:41;2.33;;;1.97;;
13485;SDS011;6815;59.336;17.998;2023-10-19T06:55:08;3.67;;;1.60;;
13485;SDS011;6815;59.336;17.998;2023-10-19T06:57:53;2.03;;;1.63;;
13485;SDS011;6815;59.336;17.998;2023-10-19T07:00:21;2.83;;;1.97;;
13485;SDS011;6815;59.336;17.998;2023-10-19T07:02:48;2.83;;;2.03;;
13485;SDS011;6815;59.336;17.998;2023-10-19T07:05:36;3.80;;;1.80;;
13485;SDS011;6815;59.336;17.998;2023-10-19T07:08:02;3.43;;;2.40;;
13485;SDS011;6815;59.336;17.998;2023-10-19T07:10:31;2.70;;;2.10;;
13485;SDS011;6815;59.336;17.998;2023-10-19T07:12:57;2.50;;;1.70;;
13485;SDS011;6815;59.336;17.998;2023-10-19T07:15:23;2.87;;;2.00;;
13485;SDS011;6815;59.336;17.998;2023-10-19T07:17:50;4.17;;;1.80;;
13485;SDS011;6815;59.336;17.998;2023-10-19T07:20:19;2.00;;;1.80;;
13485;SDS011;6815;59.336;17.998;2023-10-19T07:22:57;2.80;;;1.50;;
13485;SDS011;6815;59.336;17.998;2023-10-19T07:25:42;2.63;;;1.30;;
13485;SDS011;6815;59.336;17.998;2023-10-19T07:28:17;3.13;;;1.53;;
13485;SDS011;6815;59.336;17.998;2023-10-19T07:30:43;5.27;;;1.77;;
13485;SDS011;6815;59.336;17.998;2023-10-19T07:33:09;1.47;;;1.30;;
13485;SDS011;6815;59.336;17.998;2023-10-19T07:35:42;2.23;;;1.10;;
13485;SDS011;6815;59.336;17.998;2023-10-19T07:38:09;3.23;;;1.80;;
13485;SDS011;6815;59.336;17.998;2023-10-19T07:40:35;4.20;;;1.53;;
13485;SDS011;6815;59.336;17.998;2023-10-19T07:43:01;1.70;;;1.10;;
13485;SDS011;6815;59.336;17.998;2023-10-19T07:45:29;1.60;;;1.10;;
13485;SDS011;6815;59.336;17.998;2023-10-19T07:47:56;3.27;;;0.93;;
13485;SDS011;6815;59.336;17.998;2023-10-19T07:50:22;1.30;;;1.20;;
13485;SDS011;6815;59.336;17.998;2023-10-19T07:52:49;2.60;;;1.10;;
13485;SDS011;6815;59.336;17.998;2023-10-19T07:55:16;3.10;;;1.10;;
13485;SDS011;6815;59.336;17.998;2023-10-19T07:57:43;1.23;;;1.03;;
13485;SDS011;6815;59.336;17.998;2023-10-19T08:00:09;2.63;;;1.20;;
13485;SDS011;6815;59.336;17.998;2023-10-19T08:02:39;4.37;;;1.03;;
13485;SDS011;6815;59.336;17.998;2023-10-19T08:05:06;2.87;;;0.97;;
13485;SDS011;6815;59.336;17.998;2023-10-19T08:07:33;1.67;;;0.93;;
13485;SDS011;6815;59.336;17.998;2023-10-19T08:10:04;1.77;;;1.10;;
13485;SDS011;6815;59.336;17.998;2023-10-19T08:12:31;2.73;;;1.47;;
13485;SDS011;6815;59.336;17.998;2023-10-19T08:14:58;1.00;;;0.90;;
13485;SDS011;6815;59.336;17.998;2023-10-19T08:17:24;2.13;;;1.00;;
13485;SDS011;6815;59.336;17.998;2023-10-19T08:19:49;1.83;;;1.23;;
13485;SDS011;6815;59.336;17.998;2023-10-19T08:22:15;2.10;;;1.27;;
13485;SDS011;6815;59.336;17.998;2023-10-19T08:24:41;2.43;;;1.40;;
13485;SDS011;6815;59.336;17.998;2023-10-19T08:27:11;1.33;;;1.20;;
13485;SDS011;6815;59.336;17.998;2023-10-19T08:29:38;2.20;;;0.90;;
13485;SDS011;6815;59.336;17.998;2023-10-19T08:32:03;1.83;;;1.30;;
13485;SDS011;6815;59.336;17.998;2023-10-19T08:34:33;1.90;;;1.23;;
13485;SDS011;6815;59.336;17.998;2023-10-19T08:37:00;2.70;;;1.03;;
13485;SDS011;6815;59.336;17.998;2023-10-19T08:39:27;2.20;;;1.40;;
13485;SDS011;6815;59.336;17.998;2023-10-19T08:41:53;1.43;;;1.20;;
13485;SDS011;6815;59.336;17.998;2023-10-19T08:44:20;1.33;;;1.07;;
13485;SDS011;6815;59.336;17.998;2023-10-19T08:46:46;2.63;;;1.03;;
13485;SDS011;6815;59.336;17.998;2023-10-19T08:49:16;1.73;;;0.90;;
13485;SDS011;6815;59.336;17.998;2023-10-19T08:51:45;1.50;;;0.90;;
13485;SDS011;6815;59.336;17.998;2023-10-19T08:54:12;3.63;;;1.10;;
13485;SDS011;6815;59.336;17.998;2023-10-19T08:56:39;1.90;;;1.27;;
13485;SDS011;6815;59.336;17.998;2023-10-19T08:59:06;2.40;;;1.37;;
13485;SDS011;6815;59.336;17.998;2023-10-19T09:01:32;2.80;;;1.30;;
13485;SDS011;6815;59.336;17.998;2023-10-19T09:04:00;1.87;;;1.27;;
13485;SDS011;6815;59.336;17.998;2023-10-19T09:06:26;1.40;;;1.10;;
13485;SDS011;6815;59.336;17.998;2023-10-19T09:08:56;2.67;;;1.20;;
13485;SDS011;6815;59.336;17.998;2023-10-19T09:11:23;3.63;;;1.00;;
13485;SDS011;6815;59.336;17.998;2023-10-19T09:13:53;1.67;;;1.10;;
13485;SDS011;6815;59.336;17.998;2023-10-19T09:16:19;1.10;;;0.80;;
13485;SDS011;6815;59.336;17.998;2023-10-19T09:18:46;7.10;;;1.37;;
13485;SDS011;6815;59.336;17.998;2023-10-19T09:21:14;2.13;;;1.13;;
13485;SDS011;6815;59.336;17.998;2023-10-19T09:23:49;3.03;;;1.10;;
13485;SDS011;6815;59.336;17.998;2023-10-19T09:26:16;1.57;;;1.00;;
13485;SDS011;6815;59.336;17.998;2023-10-19T09:28:45;2.00;;;1.00;;
13485;SDS011;6815;59.336;17.998;2023-10-19T09:31:12;1.20;;;1.10;;
13485;SDS011;6815;59.336;17.998;2023-10-19T09:33:40;1.20;;;1.07;;
13485;SDS011;6815;59.336;17.998;2023-10-19T09:36:06;1.30;;;0.90;;
13485;SDS011;6815;59.336;17.998;2023-10-19T09:41:08;2.87;;;1.20;;
13485;SDS011;6815;59.336;17.998;2023-10-19T09:43:37;1.30;;;0.90;;
13485;SDS011;6815;59.336;17.998;2023-10-19T09:46:11;0.97;;;0.60;;
13485;SDS011;6815;59.336;17.998;2023-10-19T09:48:39;1.30;;;1.10;;
13485;SDS011;6815;59.336;17.998;2023-10-19T09:51:10;1.17;;;0.80;;
13485;SDS011;6815;59.336;17.998;2023-10-19T09:53:37;2.00;;;1.20;;
13485;SDS011;6815;59.336;17.998;2023-10-19T09:56:05;2.73;;;0.93;;
13485;SDS011;6815;59.336;17.998;2023-10-19T09:58:38;2.73;;;1.20;;
13485;SDS011;6815;59.336;17.998;2023-10-19T10:01:18;1.33;;;0.80;;
13485;SDS011;6815;59.336;17.998;2023-10-19T10:03:47;2.53;;;1.00;;
13485;SDS011;6815;59.336;17.998;2023-10-19T10:06:15;1.97;;;1.20;;
13485;SDS011;6815;59.336;17.998;2023-10-19T10:08:44;2.20;;;1.10;;
13485;SDS011;6815;59.336;17.998;2023-10-19T10:11:15;1.73;;;0.83;;
13485;SDS011;6815;59.336;17.998;2023-10-19T10:13:45;1.80;;;1.47;;
13485;SDS011;6815;59.336;17.998;2023-10-19T10:16:15;5.80;;;1.73;;
13485;SDS011;6815;59.336;17.998;2023-10-19T10:18:42;3.57;;;1.60;;
13485;SDS011;6815;59.336;17.998;2023-10-19T10:21:16;1.87;;;1.40;;
13485;SDS011;6815;59.336;17.998;2023-10-19T10:23:47;2.00;;;1.47;;
13485;SDS011;6815;59.336;17.998;2023-10-19T10:26:24;6.03;;;2.07;;
13485;SDS011;6815;59.336;17.998;2023-10-19T10:29:11;2.33;;;1.60;;
13485;SDS011;6815;59.336;17.998;2023-10-19T10:31:46;2.90;;;1.70;;
13485;SDS011;6815;59.336;17.998;2023-10-19T10:37:03;3.43;;;1.70;;
13485;SDS011;6815;59.336;17.998;2023-10-19T10:39:33;2.03;;;1.50;;
13485;SDS011;6815;59.336;17.998;2023-10-19T10:42:02;3.00;;;2.03;;
13485;SDS011;6815;59.336;17.998;2023-10-19T10:44:36;1.60;;;1.50;;
13485;SDS011;6815;59.336;17.998;2023-10-19T10:47:38;2.93;;;1.70;;
13485;SDS011;6815;59.336;17.998;2023-10-19T10:49:59;1.83;;;1.43;;
13485;SDS011;6815;59.336;17.998;2023-10-19T10:55:02;4.53;;;1.60;;
13485;SDS011;6815;59.336;17.998;2023-10-19T10:57:32;3.93;;;1.70;;
13485;SDS011;6815;59.336;17.998;2023-10-19T11:00:05;3.23;;;1.77;;
13485;SDS011;6815;59.336;17.998;2023-10-19T11:02:40;2.87;;;2.40;;
13485;SDS011;6815;59.336;17.998;2023-10-19T11:05:10;2.57;;;1.50;;
13485;SDS011;6815;59.336;17.998;2023-10-19T11:07:37;1.70;;;1.60;;
13485;SDS011;6815;59.336;17.998;2023-10-19T11:10:04;2.57;;;1.80;;
13485;SDS011;6815;59.336;17.998;2023-10-19T11:12:29;2.70;;;1.80;;
13485;SDS011;6815;59.336;17.998;2023-10-19T11:14:55;3.17;;;1.70;;
13485;SDS011;6815;59.336;17.998;2023-10-19T11:17:25;3.77;;;2.00;;
13485;SDS011;6815;59.336;17.998;2023-10-19T11:19:56;2.37;;;1.53;;
13485;SDS011;6815;59.336;17.998;2023-10-19T11:22:22;3.67;;;1.60;;
13485;SDS011;6815;59.336;17.998;2023-10-19T11:24:50;3.37;;;1.60;;
13485;SDS011;6815;59.336;17.998;2023-10-19T11:29:55;4.60;;;1.80;;
13485;SDS011;6815;59.336;17.998;2023-10-19T11:32:22;1.97;;;1.57;;
13485;SDS011;6815;59.336;17.998;2023-10-19T11:34:50;2.40;;;1.50;;
13485;SDS011;6815;59.336;17.998;2023-10-19T11:37:21;2.00;;;1.50;;
13485;SDS011;6815;59.336;17.998;2023-10-19T11:39:47;3.23;;;1.60;;
13485;SDS011;6815;59.336;17.998;2023-10-19T11:42:15;2.07;;;1.60;;
13485;SDS011;6815;59.336;17.998;2023-10-19T11:44:40;2.97;;;1.70;;
13485;SDS011;6815;59.336;17.998;2023-10-19T11:47:06;3.47;;;1.50;;
13485;SDS011;6815;59.336;17.998;2023-10-19T11:49:31;2.50;;;1.80;;
13485;SDS011;6815;59.336;17.998;2023-10-19T11:51:57;2.00;;;1.53;;
13485;SDS011;6815;59.336;17.998;2023-10-19T11:54:23;2.33;;;1.43;;
13485;SDS011;6815;59.336;17.998;2023-10-19T11:56:50;4.10;;;1.50;;
13485;SDS011;6815;59.336;17.998;2023-10-19T11:59:15;3.40;;;1.40;;
13485;SDS011;6815;59.336;17.998;2023-10-19T12:01:41;3.53;;;1.63;;
13485;SDS011;6815;59.336;17.998;2023-10-19T12:04:07;3.10;;;1.37;;
13485;SDS011;6815;59.336;17.998;2023-10-19T12:06:34;2.17;;;1.60;;
13485;SDS011;6815;59.336;17.998;2023-10-19T12:09:00;1.60;;;1.50;;
13485;SDS011;6815;59.336;17.998;2023-10-19T12:11:36;2.37;;;1.90;;
13485;SDS011;6815;59.336;17.998;2023-10-19T12:14:01;2.93;;;2.17;;
13485;SDS011;6815;59.336;17.998;2023-10-19T12:16:29;3.70;;;1.63;;
13485;SDS011;6815;59.336;17.998;2023-10-19T12:18:54;4.90;;;2.00;;
13485;SDS011;6815;59.336;17.998;2023-10-19T12:21:19;1.97;;;1.73;;
13485;SDS011;6815;59.336;17.998;2023-10-19T12:23:53;2.37;;;1.43;;
13485;SDS011;6815;59.336;17.998;2023-10-19T12:26:21;1.50;;;1.40;;
13485;SDS011;6815;59.336;17.998;2023-10-19T12:28:47;1.83;;;1.60;;
13485;SDS011;6815;59.336;17.998;2023-10-19T12:31:14;1.93;;;1.50;;
13485;SDS011;6815;59.336;17.998;2023-10-19T12:33:40;2.13;;;1.50;;
13485;SDS011;6815;59.336;17.998;2023-10-19T12:36:07;1.87;;;1.53;;
13485;SDS011;6815;59.336;17.998;2023-10-19T12:38:51;2.40;;;1.37;;
13485;SDS011;6815;59.336;17.998;2023-10-19T12:41:20;3.07;;;1.40;;
13485;SDS011;6815;59.336;17.998;2023-10-19T12:43:46;2.33;;;1.50;;
13485;SDS011;6815;59.336;17.998;2023-10-19T12:46:13;2.83;;;1.23;;
13485;SDS011;6815;59.336;17.998;2023-10-19T12:48:42;2.70;;;1.60;;
13485;SDS011;6815;59.336;17.998;2023-10-19T12:51:08;2.47;;;1.30;;
13485;SDS011;6815;59.336;17.998;2023-10-19T12:53:36;1.33;;;1.23;;
13485;SDS011;6815;59.336;17.998;2023-10-19T12:56:05;2.33;;;1.10;;
13485;SDS011;6815;59.336;17.998;2023-10-19T12:58:32;1.43;;;1.13;;
13485;SDS011;6815;59.336;17.998;2023-10-19T13:00:58;4.93;;;1.47;;
13485;SDS011;6815;59.336;17.998;2023-10-19T13:03:24;2.23;;;1.20;;
13485;SDS011;6815;59.336;17.998;2023-10-19T13:05:52;1.93;;;1.30;;
13485;SDS011;6815;59.336;17.998;2023-10-19T13:08:18;2.13;;;1.30;;
13485;SDS011;6815;59.336;17.998;2023-10-19T13:10:46;3.97;;;1.90;;
13485;SDS011;6815;59.336;17.998;2023-10-19T13:13:13;2.87;;;1.70;;
13485;SDS011;6815;59.336;17.998;2023-10-19T13:15:42;1.67;;;1.23;;
13485;SDS011;6815;59.336;17.998;2023-10-19T13:18:13;2.90;;;1.40;;
13485;SDS011;6815;59.336;17.998;2023-10-19T13:20:44;2.17;;;1.03;;
13485;SDS011;6815;59.336;17.998;2023-10-19T13:23:11;2.47;;;1.50;;
13485;SDS011;6815;59.336;17.998;2023-10-19T13:25:36;2.10;;;1.60;;
13485;SDS011;6815;59.336;17.998;2023-10-19T13:28:25;3.13;;;1.40;;
13485;SDS011;6815;59.336;17.998;2023-10-19T13:30:52;2.27;;;1.37;;
13485;SDS011;6815;59.336;17.998;2023-10-19T13:33:19;2.27;;;1.30;;
13485;SDS011;6815;59.336;17.998;2023-10-19T13:35:46;3.10;;;1.50;;
13485;SDS011;6815;59.336;17.998;2023-10-19T13:38:13;2.13;;;1.50;;
13485;SDS011;6815;59.336;17.998;2023-10-19T13:40:40;2.00;;;1.40;;
13485;SDS011;6815;59.336;17.998;2023-10-19T13:43:06;2.03;;;1.57;;
13485;SDS011;6815;59.336;17.998;2023-10-19T13:45:33;2.90;;;1.40;;
13485;SDS011;6815;59.336;17.998;2023-10-19T13:48:01;1.57;;;1.33;;
13485;SDS011;6815;59.336;17.998;2023-10-19T13:50:28;2.57;;;1.47;;
13485;SDS011;6815;59.336;17.998;2023-10-19T13:52:54;2.57;;;1.07;;
13485;SDS011;6815;59.336;17.998;2023-10-19T13:55:21;1.53;;;1.33;;
13485;SDS011;6815;59.336;17.998;2023-10-19T13:57:48;2.87;;;1.27;;
13485;SDS011;6815;59.336;17.998;2023-10-19T14:00:15;3.17;;;1.10;;
13485;SDS011;6815;59.336;17.998;2023-10-19T14:02:49;2.60;;;1.30;;
13485;SDS011;6815;59.336;17.998;2023-10-19T14:05:18;1.30;;;1.20;;
13485;SDS011;6815;59.336;17.998;2023-10-19T14:07:45;1.20;;;1.10;;
13485;SDS011;6815;59.336;17.998;2023-10-19T14:10:12;2.03;;;1.20;;
13485;SDS011;6815;59.336;17.998;2023-10-19T14:12:41;1.57;;;1.10;;
13485;SDS011;6815;59.336;17.998;2023-10-19T14:15:14;1.70;;;1.50;;
13485;SDS011;6815;59.336;17.998;2023-10-19T14:17:42;2.33;;;1.30;;
13485;SDS011;6815;59.336;17.998;2023-10-19T14:20:09;2.30;;;1.23;;
13485;SDS011;6815;59.336;17.998;2023-10-19T14:22:41;2.50;;;1.00;;
13485;SDS011;6815;59.336;17.998;2023-10-19T14:25:08;2.97;;;1.20;;
13485;SDS011;6815;59.336;17.998;2023-10-19T14:27:40;2.13;;;1.37;;
13485;SDS011;6815;59.336;17.998;2023-10-19T14:30:08;2.57;;;1.10;;
13485;SDS011;6815;59.336;17.998;2023-10-19T14:32:36;2.63;;;1.17;;
13485;SDS011;6815;59.336;17.998;2023-10-19T14:35:02;1.40;;;1.20;;
13485;SDS011;6815;59.336;17.998;2023-10-19T14:37:31;2.10;;;1.57;;
13485;SDS011;6815;59.336;17.998;2023-10-19T14:39:56;1.37;;;1.20;;
13485;SDS011;6815;59.336;17.998;2023-10-19T14:42:23;5.03;;;1.60;;
13485;SDS011;6815;59.336;17.998;2023-10-19T14:44:49;1.70;;;1.20;;
13485;SDS011;6815;59.336;17.998;2023-10-19T14:47:14;1.50;;;1.40;;
13485;SDS011;6815;59.336;17.998;2023-10-19T14:49:40;2.30;;;1.33;;
13485;SDS011;6815;59.336;17.998;2023-10-19T14:52:06;1.60;;;1.30;;
13485;SDS011;6815;59.336;17.998;2023-10-19T14:54:31;1.80;;;1.20;;
13485;SDS011;6815;59.336;17.998;2023-10-19T14:56:57;2.00;;;1.27;;
13485;SDS011;6815;59.336;17.998;2023-10-19T14:59:24;2.47;;;1.50;;
13485;SDS011;6815;59.336;17.998;2023-10-19T15:01:49;2.10;;;1.17;;
13485;SDS011;6815;59.336;17.998;2023-10-19T15:04:15;1.57;;;1.13;;